Terminal Aerodrome Forecast
Issued by NWS Austin/San Antonio, TX

Home | Current Version | Previous Version | Text Only | Print | Product List | Glossary On
Versions: 1 2 3 4 5 6 7 8 9 10 11 12
000
FTUS44 KEWX 181134
TAFDRT
TAF
KDRT 181134Z 1812/1912 10005KT P6SM SKC
     FM181800 13015KT P6SM FEW250
     FM191100 10007KT P6SM SCT015=

USA.gov is the U.S. government's official web portal to all federal, state and local government web resources and services.